KIR weather

Kerry Airport
Killarney, County Kerry, Ireland

Public forecast

Using degrees Celsius for public forecast. Weather courtesy of forecast.io.

Current aviation weather report (METAR) for Kerry Airport

Retrieved 2020/07/10 15:30 UTC (16 minutes ago):

EIKY 101530Z 29007KT 240V340 9999 BKN031 15/09 Q1025

Closest aviation forecast (TAF) to Kerry Airport

Closest forecast is Shannon Airport, 38.2 nm (70.8 km) NE. Retrieved 2020/07/10 12:09 UTC (4 hours ago):

TAF EINN 101100Z 1012/1112 31010KT 9999 FEW020 SCT035 BECMG 1021/1023 VRB03KT PROB30 TEMPO 1100/1105 3000 BR BKN003